Time;durP1;ratioP1;P1;durP2;ratioP2;P2;SDS_P1;SDS_P2;PMS_P1;PMS_P2;Temp;Humidity;BMP_temperature;BMP_pressure;BME280_temperature;BME280_humidity;BME280_pressure;Samples;Min_cycle;Max_cycle;Signal;HPM_P1;HPM_P2
2021/04/02 00:00:23;;;;;;;1.77;1.07;;;;;20.60;101301.00;;;;2071293;28;20221;-44
2021/04/02 00:01:24;;;;;;;1.15;1.05;;;;;20.70;101304.00;;;;2064929;28;20469;-44
2021/04/02 00:02:24;;;;;;;0.90;0.80;;;;;20.70;101314.00;;;;2068485;28;20696;-45
2021/04/02 00:03:27;;;;;;;1.70;1.10;;;;;20.70;101304.00;;;;2070749;28;20206;-46
2021/04/02 00:04:27;;;;;;;1.17;0.95;;;;;20.40;101307.00;;;;2070455;28;20672;-45
2021/04/02 00:05:27;;;;;;;1.30;0.90;;;;;20.60;101307.00;;;;2070401;28;20206;-45
2021/04/02 00:06:28;;;;;;;1.53;0.93;;;;;20.70;101312.00;;;;2069937;28;20219;-45
2021/04/02 00:07:28;;;;;;;1.13;1.03;;;;;20.60;101303.00;;;;2072154;28;20301;-44
2021/04/02 00:08:28;;;;;;;1.50;1.30;;;;;20.70;101307.00;;;;2070761;28;20215;-45
2021/04/02 00:09:29;;;;;;;1.37;1.07;;;;;20.60;101296.00;;;;2073155;28;20219;-45
2021/04/02 00:10:35;;;;;;;2.07;1.10;;;;;20.60;101299.00;;;;2073449;28;20218;-45
2021/04/02 00:11:35;;;;;;;0.80;0.80;;;;;20.60;101301.00;;;;2072419;28;20222;-45
2021/04/02 00:12:36;;;;;;;1.47;0.90;;;;;20.60;101300.00;;;;2069684;28;20229;-45
2021/04/02 00:13:37;;;;;;;1.13;1.00;;;;;20.60;101301.00;;;;2070990;28;20257;-44
2021/04/02 00:14:37;;;;;;;1.15;1.02;;;;;20.60;101299.00;;;;2070940;28;20211;-45
2021/04/02 00:15:38;;;;;;;1.07;0.90;;;;;20.60;101299.00;;;;2070954;28;20666;-45
2021/04/02 00:16:38;;;;;;;1.33;1.00;;;;;20.60;101298.00;;;;2070589;28;20215;-44
2021/04/02 00:17:38;;;;;;;1.33;1.10;;;;;20.60;101297.00;;;;2070722;28;20218;-44
2021/04/02 00:18:39;;;;;;;1.70;1.10;;;;;20.60;101301.00;;;;2070061;28;20261;-45
2021/04/02 00:19:39;;;;;;;1.50;1.10;;;;;20.60;101296.00;;;;2071595;28;20211;-45
2021/04/02 00:20:40;;;;;;;1.23;1.10;;;;;20.60;101300.00;;;;2079176;28;20209;-44
2021/04/02 00:21:40;;;;;;;1.07;0.73;;;;;20.60;101293.00;;;;2079244;28;20252;-44
2021/04/02 00:22:41;;;;;;;1.57;1.13;;;;;20.60;101296.00;;;;2077699;28;20217;-44
2021/04/02 00:23:42;;;;;;;0.93;0.90;;;;;20.60;101301.00;;;;2079110;28;20305;-45
2021/04/02 00:24:42;;;;;;;0.88;0.85;;;;;20.60;101303.00;;;;2078948;28;20224;-44
2021/04/02 00:25:43;;;;;;;0.93;0.80;;;;;20.60;101297.00;;;;2079329;28;20226;-45
2021/04/02 00:26:43;;;;;;;1.40;1.17;;;;;20.60;101224.00;;;;2078368;28;20237;-45
2021/04/02 00:27:44;;;;;;;1.30;0.97;;;;;20.60;101291.00;;;;2072573;28;20666;-44
2021/04/02 00:28:45;;;;;;;1.50;0.93;;;;;20.60;101293.00;;;;2077828;28;20295;-45
2021/04/02 00:29:45;;;;;;;1.15;0.90;;;;;20.60;101299.00;;;;2078756;28;20657;-47
2021/04/02 00:30:50;;;;;;;1.23;1.00;;;;;20.60;101296.00;;;;2079230;28;20221;-46
2021/04/02 00:31:50;;;;;;;1.90;1.08;;;;;20.60;101293.00;;;;2078357;28;20214;-45
2021/04/02 00:32:51;;;;;;;1.47;0.97;;;;;20.60;101293.00;;;;2074793;28;20726;-44
2021/04/02 00:33:51;;;;;;;1.40;1.00;;;;;20.60;101296.00;;;;2079089;28;20631;-45
2021/04/02 00:34:53;;;;;;;1.40;1.00;;;;;20.60;101293.00;;;;2078885;28;20218;-44
2021/04/02 00:35:53;;;;;;;1.23;1.00;;;;;20.60;101290.00;;;;2072789;28;20591;-44
2021/04/02 00:36:53;;;;;;;1.17;0.90;;;;;20.60;101292.00;;;;2077275;28;20292;-44
2021/04/02 00:37:54;;;;;;;1.00;0.80;;;;;20.60;101288.00;;;;2078376;28;20264;-45
2021/04/02 00:38:54;;;;;;;1.37;1.00;;;;;20.60;101286.00;;;;2076335;28;20313;-45
2021/04/02 00:39:54;;;;;;;1.30;1.10;;;;;20.60;101291.00;;;;2068853;28;20279;-45
2021/04/02 00:41:03;;;;;;;1.73;1.03;;;;;20.60;101205.00;;;;2074072;28;20319;-45
2021/04/02 00:42:04;;;;;;;1.10;1.00;;;;;20.60;101295.00;;;;2070018;28;20226;-45
2021/04/02 00:43:05;;;;;;;1.23;1.10;;;;;20.60;101283.00;;;;2070455;28;21106;-45
2021/04/02 00:44:05;;;;;;;1.40;0.90;;;;;20.60;101287.00;;;;2072740;28;20826;-45
2021/04/02 00:45:06;;;;;;;1.10;0.90;;;;;20.60;101289.00;;;;2072489;28;20218;-45
2021/04/02 00:46:07;;;;;;;1.43;1.20;;;;;20.60;101279.00;;;;2070653;28;20253;-45
2021/04/02 00:47:07;;;;;;;2.25;1.10;;;;;20.60;101285.00;;;;2068935;28;20981;-45
2021/04/02 00:48:08;;;;;;;2.00;1.07;;;;;20.60;101288.00;;;;2070423;28;20223;-45
2021/04/02 00:49:08;;;;;;;1.60;1.30;;;;;20.60;101290.00;;;;2070589;28;20273;-46
2021/04/02 00:50:25;;;;;;;1.40;1.00;;;;;20.60;101288.00;;;;2070414;28;20269;-44
2021/04/02 00:51:28;;;;;;;1.23;1.00;;;;;20.50;101281.00;;;;2070767;28;20228;-45
2021/04/02 00:52:28;;;;;;;1.45;1.20;;;;;20.60;101286.00;;;;2059173;28;20257;-50
2021/04/02 00:53:30;;;;;;;1.00;0.90;;;;;20.60;101284.00;;;;2061688;28;20652;-46
2021/04/02 00:54:30;;;;;;;1.88;0.95;;;;;20.60;101287.00;;;;2069639;28;20225;-45
2021/04/02 00:55:31;;;;;;;1.40;1.20;;;;;20.60;101274.00;;;;2068002;28;20301;-45
2021/04/02 00:56:31;;;;;;;1.30;1.17;;;;;20.60;101285.00;;;;2069349;28;20210;-45
2021/04/02 00:57:33;;;;;;;1.53;1.00;;;;;20.60;101285.00;;;;2065988;28;20214;-45
2021/04/02 00:58:35;;;;;;;1.60;1.05;;;;;20.60;101288.00;;;;2069606;28;20215;-45
2021/04/02 00:59:35;;;;;;;1.35;1.20;;;;;20.60;101277.00;;;;2070529;28;20293;-45
2021/04/02 01:00:35;;;;;;;1.30;1.00;;;;;20.60;101282.00;;;;2069450;28;20624;-45
2021/04/02 01:01:36;;;;;;;1.30;1.00;;;;;20.60;101294.00;;;;2069745;28;20210;-45
2021/04/02 01:02:36;;;;;;;2.07;1.10;;;;;20.60;101300.00;;;;2067851;28;20211;-44
2021/04/02 01:03:37;;;;;;;1.60;1.10;;;;;20.60;101290.00;;;;2069447;28;20214;-45
2021/04/02 01:04:37;;;;;;;2.27;1.10;;;;;20.60;101294.00;;;;2070391;28;20641;-45
2021/04/02 01:05:39;;;;;;;1.27;1.07;;;;;20.60;101289.00;;;;2070215;28;20207;-45
2021/04/02 01:06:40;;;;;;;1.20;1.10;;;;;20.60;101282.00;;;;2076763;28;20252;-44
2021/04/02 01:07:41;;;;;;;0.93;0.70;;;;;20.60;101283.00;;;;2070271;28;20306;-45
2021/04/02 01:08:42;;;;;;;1.20;0.90;;;;;20.60;101286.00;;;;2070328;28;20229;-45
2021/04/02 01:09:43;;;;;;;1.75;0.77;;;;;20.60;101280.00;;;;2071749;28;20454;-46
2021/04/02 01:10:43;;;;;;;1.40;1.17;;;;;20.60;101285.00;;;;2071303;28;20294;-46
2021/04/02 01:11:44;;;;;;;0.90;0.80;;;;;20.60;101281.00;;;;2070760;28;20698;-45
2021/04/02 01:12:44;;;;;;;0.80;0.70;;;;;20.50;101278.00;;;;2065520;28;20261;-45
2021/04/02 01:13:46;;;;;;;1.40;1.03;;;;;20.60;101285.00;;;;2070510;28;20207;-46
2021/04/02 01:14:46;;;;;;;1.00;0.90;;;;;20.60;101276.00;;;;2074632;28;20275;-45
2021/04/02 01:16:05;;;;;;;1.57;0.93;;;;;20.50;101281.00;;;;2077655;28;20206;-45
2021/04/02 01:17:06;;;;;;;2.10;1.17;;;;;20.60;101290.00;;;;2069548;28;20242;-46
2021/04/02 01:18:20;;;;;;;1.25;0.95;;;;;20.60;101286.00;;;;2071010;28;20215;-44
2021/04/02 01:19:28;;;;;;;1.42;1.10;;;;;20.50;101276.00;;;;2077333;28;20231;-45
2021/04/02 01:20:30;;;;;;;1.00;0.90;;;;;20.50;101278.00;;;;2056195;28;20224;-46
2021/04/02 01:21:36;;;;;;;1.70;1.17;;;;;20.60;101281.00;;;;2069743;28;20219;-45
2021/04/02 01:22:36;;;;;;;1.20;1.10;;;;;20.50;101289.00;;;;2064370;28;20210;-45
2021/04/02 01:23:46;;;;;;;0.87;0.77;;;;;20.50;101283.00;;;;2061322;28;20231;-45
2021/04/02 01:25:24;;;;;;;1.65;0.93;;;;;20.50;101278.00;;;;2068408;28;20222;-45
2021/04/02 01:26:46;;;;;;;1.50;1.08;;;;;20.50;101278.00;;;;2070365;28;20676;-45
2021/04/02 01:28:13;;;;;;;1.20;0.98;;;;;20.50;101283.00;;;;2069443;28;20215;-45
2021/04/02 01:29:15;;;;;;;1.30;1.10;;;;;20.50;101281.00;;;;2076922;28;20236;-45
2021/04/02 01:30:16;;;;;;;1.27;1.10;;;;;20.50;101287.00;;;;2077357;28;20288;-45
2021/04/02 01:31:16;;;;;;;1.33;1.07;;;;;20.50;101281.00;;;;2077532;28;20221;-45
2021/04/02 01:32:18;;;;;;;1.77;1.17;;;;;20.50;101279.00;;;;2068757;28;20293;-45
2021/04/02 01:33:18;;;;;;;1.23;0.82;;;;;20.50;101281.00;;;;2077827;28;20202;-45
2021/04/02 01:34:21;;;;;;;1.20;0.90;;;;;20.50;101289.00;;;;2069631;28;20215;-45
2021/04/02 01:35:26;;;;;;;2.85;1.02;;;;;20.50;101280.00;;;;2069647;28;20253;-45
2021/04/02 01:36:27;;;;;;;1.20;0.90;;;;;20.50;101275.00;;;;2077855;28;20217;-45
2021/04/02 01:37:35;;;;;;;1.60;1.00;;;;;20.50;101285.00;;;;2066982;28;20238;-46
2021/04/02 01:38:36;;;;;;;1.00;0.90;;;;;20.50;101298.00;;;;2062316;28;20219;-45
2021/04/02 01:39:39;;;;;;;1.15;1.00;;;;;20.50;101282.00;;;;2073765;28;20207;-45
2021/04/02 01:40:41;;;;;;;0.98;0.88;;;;;20.50;101287.00;;;;2075376;28;20272;-44
2021/04/02 01:41:43;;;;;;;1.20;1.10;;;;;20.50;101280.00;;;;2077627;28;20309;-44
2021/04/02 01:42:44;;;;;;;1.80;0.90;;;;;20.50;101276.00;;;;2070182;28;20568;-45
2021/04/02 01:43:51;;;;;;;1.00;0.80;;;;;20.50;101283.00;;;;2061479;28;20298;-45
2021/04/02 01:44:52;;;;;;;1.25;0.90;;;;;20.50;101275.00;;;;2056271;28;20558;-45
2021/04/02 01:45:52;;;;;;;2.57;1.00;;;;;20.50;101282.00;;;;2061539;28;20344;-46
2021/04/02 01:46:52;;;;;;;1.50;1.10;;;;;20.50;101284.00;;;;2061278;28;20211;-45
2021/04/02 01:47:53;;;;;;;1.07;0.93;;;;;20.50;101283.00;;;;2077625;28;20733;-46
2021/04/02 01:48:59;;;;;;;1.23;1.10;;;;;20.50;101273.00;;;;2069622;28;20338;-44
2021/04/02 01:49:59;;;;;;;2.30;1.30;;;;;20.50;101277.00;;;;2063855;28;20583;-45
2021/04/02 01:50:59;;;;;;;1.13;0.80;;;;;20.50;101271.00;;;;2061530;28;20219;-45
2021/04/02 01:52:00;;;;;;;1.23;0.97;;;;;20.50;101282.00;;;;2061001;28;20219;-46
2021/04/02 01:53:00;;;;;;;1.00;0.83;;;;;20.50;101281.00;;;;2052969;28;20701;-45
2021/04/02 01:54:01;;;;;;;1.23;0.90;;;;;20.50;101284.00;;;;2070099;28;20258;-44
2021/04/02 01:55:02;;;;;;;1.13;0.80;;;;;20.50;101286.00;;;;2077075;28;20210;-44
2021/04/02 01:56:04;;;;;;;1.67;1.00;;;;;20.50;101282.00;;;;2078144;28;20463;-44
2021/04/02 01:57:04;;;;;;;1.13;0.90;;;;;20.50;101282.00;;;;2077093;28;20214;-43
2021/04/02 01:58:05;;;;;;;1.13;0.90;;;;;20.50;101282.00;;;;2061534;28;20306;-43
2021/04/02 01:59:06;;;;;;;1.20;1.10;;;;;20.50;101279.00;;;;2069522;28;20707;-45
2021/04/02 02:00:12;;;;;;;1.77;1.23;;;;;20.50;101282.00;;;;2077372;28;20878;-43
2021/04/02 02:01:14;;;;;;;1.00;0.90;;;;;20.50;101281.00;;;;2069770;28;20712;-44
2021/04/02 02:02:15;;;;;;;1.45;1.30;;;;;20.50;101282.00;;;;2076505;28;20221;-43
2021/04/02 02:03:16;;;;;;;1.83;1.03;;;;;20.50;101276.00;;;;2078228;28;20305;-44
2021/04/02 02:04:20;;;;;;;2.07;1.10;;;;;20.50;101280.00;;;;2068677;28;20211;-44
2021/04/02 02:05:20;;;;;;;1.73;0.90;;;;;20.50;101286.00;;;;2070262;28;20572;-44
2021/04/02 02:06:23;;;;;;;1.80;0.97;;;;;20.50;101276.00;;;;2069602;28;20266;-44
2021/04/02 02:07:23;;;;;;;1.48;0.90;;;;;20.50;101283.00;;;;2068935;28;20217;-44
2021/04/02 02:08:23;;;;;;;1.60;1.03;;;;;20.50;101280.00;;;;2070245;28;20241;-46
2021/04/02 02:09:28;;;;;;;1.03;0.93;;;;;20.50;101278.00;;;;2069044;28;20718;-46
2021/04/02 02:10:29;;;;;;;1.23;0.90;;;;;20.50;101283.00;;;;2074236;28;20226;-44
2021/04/02 02:11:29;;;;;;;1.10;1.00;;;;;20.50;101284.00;;;;2072642;28;20831;-45
2021/04/02 02:12:30;;;;;;;1.07;0.80;;;;;20.50;101283.00;;;;2062060;28;20307;-45
2021/04/02 02:13:30;;;;;;;1.40;1.10;;;;;20.50;101282.00;;;;2069260;28;20642;-44
2021/04/02 02:14:32;;;;;;;1.20;0.80;;;;;20.50;101286.00;;;;2077633;28;20221;-46
2021/04/02 02:15:36;;;;;;;1.45;0.90;;;;;20.50;101284.00;;;;2072894;28;20296;-46
2021/04/02 02:16:36;;;;;;;1.40;1.00;;;;;20.50;101272.00;;;;2072407;28;20207;-44
2021/04/02 02:17:37;;;;;;;1.90;1.10;;;;;20.50;101284.00;;;;2060918;28;20558;-45
2021/04/02 02:18:37;;;;;;;1.27;0.80;;;;;20.50;101277.00;;;;2051754;28;20294;-46
2021/04/02 02:19:38;;;;;;;1.97;1.20;;;;;20.50;101270.00;;;;2067451;28;20222;-43
2021/04/02 02:20:40;;;;;;;1.40;0.95;;;;;20.50;101281.00;;;;2061313;28;20218;-44
2021/04/02 02:21:42;;;;;;;1.23;0.80;;;;;20.50;101284.00;;;;2069652;28;20214;-44
2021/04/02 02:22:42;;;;;;;1.33;0.80;;;;;20.50;101281.00;;;;2064574;28;20211;-46
2021/04/02 02:23:42;;;;;;;1.40;1.00;;;;;20.50;101279.00;;;;2060889;28;20246;-44
2021/04/02 02:24:43;;;;;;;1.50;1.10;;;;;20.50;101278.00;;;;2067461;28;20296;-44
2021/04/02 02:25:43;;;;;;;1.40;0.93;;;;;20.40;101279.00;;;;2076977;28;20213;-44
2021/04/02 02:26:44;;;;;;;1.43;1.00;;;;;20.50;101286.00;;;;2077413;28;20703;-43
2021/04/02 02:27:44;;;;;;;1.10;0.90;;;;;20.50;101275.00;;;;2077925;28;20210;-46
2021/04/02 02:28:44;;;;;;;1.20;0.80;;;;;20.50;101277.00;;;;2069160;28;20223;-45
2021/04/02 02:29:45;;;;;;;1.03;0.90;;;;;20.50;101286.00;;;;2069259;28;20238;-45
2021/04/02 02:30:45;;;;;;;1.50;1.23;;;;;20.50;101279.00;;;;2075609;28;20216;-44
2021/04/02 02:31:46;;;;;;;1.00;0.80;;;;;20.50;101289.00;;;;2076742;28;20245;-45
2021/04/02 02:32:46;;;;;;;1.30;1.00;;;;;20.40;101282.00;;;;2068588;28;20210;-44
2021/04/02 02:33:47;;;;;;;1.40;0.90;;;;;20.40;101280.00;;;;2068977;28;20209;-46
2021/04/02 02:34:47;;;;;;;1.53;1.10;;;;;20.50;101283.00;;;;2078458;28;20236;-43
2021/04/02 02:35:47;;;;;;;1.17;1.00;;;;;20.40;101282.00;;;;2078009;28;20267;-46
2021/04/02 02:36:48;;;;;;;1.50;0.90;;;;;20.50;101284.00;;;;2070802;28;20234;-43
2021/04/02 02:37:48;;;;;;;1.03;0.93;;;;;20.50;101286.00;;;;2069060;28;20600;-44
2021/04/02 02:38:49;;;;;;;1.30;0.90;;;;;20.50;101282.00;;;;2076733;28;20206;-45
2021/04/02 02:39:49;;;;;;;1.33;1.13;;;;;20.50;101283.00;;;;2073155;28;20209;-44
2021/04/02 02:40:49;;;;;;;1.63;1.07;;;;;20.40;101284.00;;;;2071821;28;20210;-46
2021/04/02 02:41:50;;;;;;;1.00;0.80;;;;;20.40;101280.00;;;;2071423;28;20206;-44
2021/04/02 02:42:50;;;;;;;1.27;0.90;;;;;20.40;101306.00;;;;2068474;28;20222;-45
2021/04/02 02:43:51;;;;;;;1.27;0.90;;;;;20.40;101282.00;;;;2070152;28;20253;-44
2021/04/02 02:44:51;;;;;;;1.33;0.73;;;;;20.40;101277.00;;;;2061414;28;20211;-45
2021/04/02 02:45:52;;;;;;;1.93;1.03;;;;;20.40;101283.00;;;;2061297;28;20676;-44
2021/04/02 02:46:52;;;;;;;1.93;0.80;;;;;20.40;101289.00;;;;2069191;28;20863;-43
2021/04/02 02:47:52;;;;;;;1.27;0.87;;;;;20.50;101286.00;;;;2073802;28;20257;-45
2021/04/02 02:48:55;;;;;;;1.53;0.90;;;;;20.40;101289.00;;;;2075712;28;20226;-45
2021/04/02 02:49:57;;;;;;;1.30;0.95;;;;;20.40;101286.00;;;;2067784;28;20219;-43
2021/04/02 02:50:57;;;;;;;1.20;0.90;;;;;20.40;101283.00;;;;2069241;28;20709;-45
2021/04/02 02:51:58;;;;;;;1.27;0.70;;;;;20.40;101290.00;;;;2061066;28;20235;-44
2021/04/02 02:52:58;;;;;;;0.90;0.80;;;;;20.40;101299.00;;;;2060403;28;20585;-43
2021/04/02 02:54:00;;;;;;;1.77;0.90;;;;;20.40;101282.00;;;;2061108;28;20359;-44
2021/04/02 02:55:00;;;;;;;1.15;1.05;;;;;20.40;101282.00;;;;2077559;28;20229;-44
2021/04/02 02:56:01;;;;;;;1.53;1.00;;;;;20.40;101284.00;;;;2069196;28;20289;-44
2021/04/02 02:57:01;;;;;;;1.97;0.90;;;;;20.40;101282.00;;;;2077181;28;20564;-45
2021/04/02 02:58:02;;;;;;;1.00;0.90;;;;;20.40;101281.00;;;;2076942;28;20757;-44
2021/04/02 02:59:04;;;;;;;1.57;0.90;;;;;20.40;101287.00;;;;2068996;28;20226;-44
2021/04/02 03:00:09;;;;;;;1.63;0.95;;;;;20.40;101281.00;;;;2061492;28;20764;-43
2021/04/02 03:01:11;;;;;;;1.27;0.88;;;;;20.40;101289.00;;;;2077086;28;20210;-45
2021/04/02 03:02:11;;;;;;;1.98;1.00;;;;;20.40;101286.00;;;;2067743;28;20218;-45
2021/04/02 03:03:15;;;;;;;1.23;0.90;;;;;20.40;101281.00;;;;2069231;28;20280;-44
2021/04/02 03:04:16;;;;;;;1.08;0.90;;;;;20.40;101281.00;;;;2060818;28;20219;-43
2021/04/02 03:05:18;;;;;;;1.20;0.90;;;;;20.40;101277.00;;;;2058522;28;20215;-44
2021/04/02 03:06:20;;;;;;;1.08;0.90;;;;;20.40;101278.00;;;;2060535;28;20633;-44
2021/04/02 03:07:20;;;;;;;1.05;0.85;;;;;20.40;101283.00;;;;2072668;28;20233;-43
2021/04/02 03:08:21;;;;;;;1.10;0.83;;;;;20.40;101279.00;;;;2070532;28;20226;-43
2021/04/02 03:09:22;;;;;;;1.20;0.90;;;;;20.40;101289.00;;;;2075918;28;20214;-44
2021/04/02 03:10:23;;;;;;;1.00;0.90;;;;;20.40;101285.00;;;;2070170;28;20449;-44
2021/04/02 03:11:23;;;;;;;1.63;0.97;;;;;20.40;101280.00;;;;2057035;28;20209;-45
2021/04/02 03:12:24;;;;;;;1.57;1.27;;;;;20.40;101277.00;;;;2045071;28;20283;-45
2021/04/02 03:13:24;;;;;;;1.40;1.00;;;;;20.40;101281.00;;;;2065841;28;20639;-43
2021/04/02 03:14:24;;;;;;;1.20;1.10;;;;;20.40;101284.00;;;;2078260;28;20276;-44
2021/04/02 03:15:25;;;;;;;1.40;1.20;;;;;20.40;101275.00;;;;2078888;28;20289;-44
2021/04/02 03:16:26;;;;;;;1.00;0.90;;;;;20.40;101282.00;;;;2070678;28;20815;-46
2021/04/02 03:17:26;;;;;;;1.63;1.17;;;;;20.40;101283.00;;;;2071246;28;20209;-44
2021/04/02 03:18:26;;;;;;;1.20;0.80;;;;;20.40;101280.00;;;;2078276;28;20234;-43
2021/04/02 03:19:27;;;;;;;0.90;0.80;;;;;20.40;101271.00;;;;2070205;28;20219;-43
2021/04/02 03:20:27;;;;;;;1.27;0.77;;;;;20.40;101290.00;;;;2070694;28;20203;-44
2021/04/02 03:21:27;;;;;;;1.00;0.80;;;;;20.40;101287.00;;;;2074583;28;20214;-46
2021/04/02 03:22:29;;;;;;;1.57;1.00;;;;;20.40;101286.00;;;;2061605;28;20266;-44
2021/04/02 03:23:29;;;;;;;1.67;0.90;;;;;20.40;101283.00;;;;2062620;28;20207;-43
2021/04/02 03:24:29;;;;;;;1.23;0.83;;;;;20.20;101288.00;;;;2062138;28;20204;-44
2021/04/02 03:25:30;;;;;;;1.60;1.10;;;;;20.40;101292.00;;;;2062385;28;20207;-46
2021/04/02 03:26:30;;;;;;;1.37;1.10;;;;;20.40;101284.00;;;;2069521;28;20214;-44
2021/04/02 03:27:30;;;;;;;1.20;1.00;;;;;20.40;101288.00;;;;2054424;28;20600;-44
2021/04/02 03:28:31;;;;;;;1.37;0.83;;;;;20.40;101290.00;;;;2054665;28;20303;-44
2021/04/02 03:29:31;;;;;;;0.90;0.90;;;;;20.40;101292.00;;;;2070819;28;20211;-44
2021/04/02 03:30:31;;;;;;;1.57;1.00;;;;;20.40;101293.00;;;;2070354;28;20269;-45
2021/04/02 03:31:34;;;;;;;1.50;1.00;;;;;20.40;101284.00;;;;2070897;28;20270;-45
2021/04/02 03:32:35;;;;;;;1.40;1.15;;;;;20.40;101284.00;;;;2069386;28;20289;-45
2021/04/02 03:33:39;;;;;;;1.83;1.20;;;;;20.40;101282.00;;;;2062565;28;20238;-44
2021/04/02 03:34:39;;;;;;;1.50;1.00;;;;;20.40;101289.00;;;;2067998;28;20458;-44
2021/04/02 03:35:40;;;;;;;1.53;0.90;;;;;20.40;101297.00;;;;2078696;28;20216;-44
2021/04/02 03:36:42;;;;;;;1.20;0.90;;;;;20.40;101294.00;;;;2062221;28;20219;-44
2021/04/02 03:37:45;;;;;;;1.00;0.90;;;;;20.40;101291.00;;;;2062807;28;20216;-44
2021/04/02 03:38:46;;;;;;;1.00;0.90;;;;;20.40;101281.00;;;;2078372;28;20210;-44
2021/04/02 03:39:46;;;;;;;1.30;1.10;;;;;20.40;101293.00;;;;2064531;28;20215;-44
2021/04/02 03:40:47;;;;;;;0.80;0.80;;;;;20.40;101285.00;;;;2063546;28;20210;-44
2021/04/02 03:41:51;;;;;;;1.30;1.00;;;;;20.40;101307.00;;;;2063423;28;20331;-44
2021/04/02 03:42:54;;;;;;;1.00;0.90;;;;;20.40;101296.00;;;;2061647;28;20215;-44
2021/04/02 03:43:54;;;;;;;0.85;0.80;;;;;20.40;101297.00;;;;2070115;28;20218;-44
2021/04/02 03:44:55;;;;;;;1.10;0.90;;;;;20.40;101287.00;;;;2070904;28;20222;-43
2021/04/02 03:45:56;;;;;;;1.77;1.00;;;;;20.40;101290.00;;;;2070593;28;21088;-43
2021/04/02 03:46:56;;;;;;;1.10;0.93;;;;;20.40;101292.00;;;;2062387;28;20227;-43
2021/04/02 03:47:57;;;;;;;1.30;0.73;;;;;20.40;101297.00;;;;2069456;28;20586;-46
2021/04/02 03:48:58;;;;;;;1.50;0.90;;;;;20.40;101301.00;;;;2062277;28;20235;-43
2021/04/02 03:49:58;;;;;;;1.08;0.90;;;;;20.40;101296.00;;;;2070547;28;20222;-46
2021/04/02 03:50:59;;;;;;;1.27;0.90;;;;;20.40;101297.00;;;;2062571;28;20219;-44
2021/04/02 03:52:01;;;;;;;1.10;1.00;;;;;20.40;101305.00;;;;2062054;28;20227;-45
2021/04/02 03:53:29;;;;;;;1.73;0.90;;;;;20.40;101296.00;;;;2076023;28;20218;-45
2021/04/02 03:54:30;;;;;;;1.42;0.90;;;;;20.40;101300.00;;;;2078518;28;20210;-44
2021/04/02 03:55:30;;;;;;;1.97;1.20;;;;;20.40;101302.00;;;;2078673;28;20293;-43
2021/04/02 03:56:31;;;;;;;1.20;1.03;;;;;20.40;101303.00;;;;2064361;28;20243;-45
2021/04/02 03:57:32;;;;;;;1.20;0.90;;;;;20.40;101245.00;;;;2062208;28;20620;-46
2021/04/02 03:58:32;;;;;;;1.00;0.73;;;;;20.40;101302.00;;;;2062371;28;20223;-45
2021/04/02 03:59:33;;;;;;;0.93;0.80;;;;;20.40;101309.00;;;;2070602;28;20944;-45
2021/04/02 04:00:42;;;;;;;0.93;0.70;;;;;20.40;101303.00;;;;2059108;28;20740;-45
2021/04/02 04:01:44;;;;;;;0.88;0.88;;;;;20.40;101301.00;;;;2075524;28;20293;-44
2021/04/02 04:02:45;;;;;;;1.45;0.95;;;;;20.40;101301.00;;;;2061163;28;21142;-45
2021/04/02 04:03:47;;;;;;;1.20;1.10;;;;;20.40;101294.00;;;;2046748;28;20228;-44
2021/04/02 04:04:47;;;;;;;3.60;1.00;;;;;20.40;101304.00;;;;2062542;28;20766;-44
2021/04/02 04:05:48;;;;;;;1.00;0.83;;;;;20.40;101308.00;;;;2054342;28;20216;-45
2021/04/02 04:06:49;;;;;;;1.13;1.02;;;;;20.30;101301.00;;;;2054386;28;20732;-44
2021/04/02 04:07:49;;;;;;;1.43;0.83;;;;;20.30;101308.00;;;;2062520;28;20219;-46
2021/04/02 04:08:54;;;;;;;1.07;0.73;;;;;20.40;101305.00;;;;2062258;28;20458;-45
2021/04/02 04:09:54;;;;;;;1.25;0.95;;;;;20.30;101306.00;;;;2071559;28;20305;-43
2021/04/02 04:10:55;;;;;;;2.00;1.10;;;;;20.40;101304.00;;;;2071032;28;20722;-43
2021/04/02 04:11:56;;;;;;;1.00;0.90;;;;;20.30;101301.00;;;;2062589;28;20592;-46
2021/04/02 04:12:57;;;;;;;1.20;0.75;;;;;20.30;101308.00;;;;2069084;28;20272;-43
2021/04/02 04:13:58;;;;;;;0.88;0.88;;;;;20.40;101305.00;;;;2070263;28;20237;-44
2021/04/02 04:14:58;;;;;;;1.90;1.00;;;;;20.30;101306.00;;;;2062050;28;20262;-43
2021/04/02 04:15:58;;;;;;;1.27;0.93;;;;;20.40;101311.00;;;;2063598;28;20254;-45
2021/04/02 04:16:59;;;;;;;2.30;1.13;;;;;20.40;101310.00;;;;2055913;28;20234;-43
2021/04/02 04:17:59;;;;;;;1.33;1.10;;;;;20.30;101306.00;;;;2045987;28;20225;-46
2021/04/02 04:19:00;;;;;;;1.07;0.73;;;;;20.30;101312.00;;;;2066320;28;20229;-46
2021/04/02 04:20:00;;;;;;;1.33;0.95;;;;;20.40;101319.00;;;;2075400;28;20668;-45
2021/04/02 04:21:02;;;;;;;1.50;1.00;;;;;20.30;101314.00;;;;2069860;28;20218;-43
2021/04/02 04:22:03;;;;;;;1.25;1.13;;;;;20.30;101311.00;;;;2070105;28;20309;-44
2021/04/02 04:23:04;;;;;;;1.47;1.07;;;;;20.30;101317.00;;;;2078351;28;20222;-44
2021/04/02 04:24:10;;;;;;;1.10;0.82;;;;;20.30;101308.00;;;;2078186;28;20222;-44
2021/04/02 04:25:11;;;;;;;1.75;1.20;;;;;20.30;101308.00;;;;2062699;28;20678;-44
2021/04/02 04:26:11;;;;;;;1.00;0.90;;;;;20.30;101319.00;;;;2070350;28;20219;-43
2021/04/02 04:27:11;;;;;;;1.10;0.80;;;;;20.40;101317.00;;;;2067239;28;20227;-46
2021/04/02 04:28:13;;;;;;;1.10;1.00;;;;;20.40;101316.00;;;;2068875;28;20210;-44
2021/04/02 04:29:18;;;;;;;1.67;1.00;;;;;20.40;101313.00;;;;2069951;28;20233;-45
2021/04/02 04:30:19;;;;;;;1.17;1.00;;;;;20.30;101312.00;;;;2055422;28;21124;-45
2021/04/02 04:31:19;;;;;;;1.50;1.00;;;;;20.30;101321.00;;;;2062659;28;20219;-44
2021/04/02 04:32:20;;;;;;;1.10;1.00;;;;;20.30;101322.00;;;;2054319;28;20270;-46
2021/04/02 04:33:21;;;;;;;1.00;0.90;;;;;20.30;101316.00;;;;2068813;28;20313;-45
2021/04/02 04:34:21;;;;;;;1.50;0.90;;;;;20.30;101321.00;;;;2060763;28;20466;-44
2021/04/02 04:35:21;;;;;;;3.50;0.80;;;;;20.30;101323.00;;;;2062394;28;20677;-44
2021/04/02 04:36:22;;;;;;;1.53;1.07;;;;;20.30;101318.00;;;;2070031;28;20219;-45
2021/04/02 04:37:22;;;;;;;1.53;0.90;;;;;20.30;101322.00;;;;2069978;28;20673;-44
2021/04/02 04:38:23;;;;;;;1.53;1.00;;;;;20.30;101308.00;;;;2077793;28;20245;-46
2021/04/02 04:39:23;;;;;;;1.23;0.97;;;;;20.30;101322.00;;;;2067300;28;20215;-43
2021/04/02 04:40:24;;;;;;;1.47;1.10;;;;;20.30;101320.00;;;;2065614;28;20249;-46
2021/04/02 04:41:25;;;;;;;1.50;1.40;;;;;20.30;101319.00;;;;2069943;28;20218;-44
2021/04/02 04:42:25;;;;;;;1.27;1.00;;;;;20.30;101308.00;;;;2068197;28;20461;-43
2021/04/02 04:43:26;;;;;;;1.47;1.03;;;;;20.30;101314.00;;;;2061630;28;20297;-43
2021/04/02 04:44:26;;;;;;;1.23;1.00;;;;;20.30;101320.00;;;;2067574;28;20222;-45
2021/04/02 04:45:27;;;;;;;2.43;1.17;;;;;20.30;101314.00;;;;2070293;28;20233;-44
2021/04/02 04:46:27;;;;;;;1.70;1.17;;;;;20.30;101315.00;;;;2069416;28;20226;-44
2021/04/02 04:47:27;;;;;;;1.93;1.10;;;;;20.30;101318.00;;;;2070049;28;20254;-43
2021/04/02 04:48:28;;;;;;;1.10;1.00;;;;;20.30;101310.00;;;;2070374;28;21142;-44
2021/04/02 04:49:29;;;;;;;1.88;0.93;;;;;20.30;101321.00;;;;2070077;28;20215;-44
2021/04/02 04:50:29;;;;;;;1.13;1.03;;;;;20.30;101318.00;;;;2070017;28;20238;-43
2021/04/02 04:51:31;;;;;;;1.30;1.10;;;;;20.30;101332.00;;;;2070845;28;20293;-45
2021/04/02 04:52:31;;;;;;;1.75;1.55;;;;;20.30;101320.00;;;;2075401;28;20642;-45
2021/04/02 04:53:34;;;;;;;1.10;0.90;;;;;20.30;101325.00;;;;2077818;28;20243;-45
2021/04/02 04:54:34;;;;;;;1.70;0.90;;;;;20.30;101300.00;;;;2072891;28;20218;-46
2021/04/02 04:55:36;;;;;;;1.13;1.00;;;;;20.30;101316.00;;;;2062119;28;20627;-45
2021/04/02 04:56:36;;;;;;;1.50;1.30;;;;;20.30;101308.00;;;;2060363;28;20227;-44
2021/04/02 04:57:37;;;;;;;1.57;1.00;;;;;20.30;101318.00;;;;2061375;28;20224;-45
2021/04/02 04:58:39;;;;;;;1.00;0.90;;;;;20.30;101317.00;;;;2069885;28;20225;-43
2021/04/02 04:59:40;;;;;;;1.08;0.98;;;;;20.30;101317.00;;;;2066215;28;20226;-45
2021/04/02 05:00:42;;;;;;;1.73;1.20;;;;;20.30;101304.00;;;;2069593;28;20664;-46
2021/04/02 05:01:44;;;;;;;1.15;0.90;;;;;20.30;101318.00;;;;2068814;28;20210;-44
2021/04/02 05:02:45;;;;;;;1.20;1.13;;;;;20.30;101321.00;;;;2070540;28;20218;-43
2021/04/02 05:03:45;;;;;;;1.33;0.95;;;;;20.30;101320.00;;;;2070632;28;20293;-44
2021/04/02 05:04:46;;;;;;;1.63;1.00;;;;;20.30;101325.00;;;;2077143;28;20745;-44